Time;durP1;ratioP1;P1;durP2;ratioP2;P2;SDS_P1;SDS_P2;PMS_P1;PMS_P2;Temp;Humidity;BMP_temperature;BMP_pressure;BME280_temperature;BME280_humidity;BME280_pressure;Samples;Min_cycle;Max_cycle;Signal;HPM_P1;HPM_P2
2023/06/23 00:00:09;;;;;;;19.67;13.82;;;;;;;14.13;100.00;101813.03;5038772;28;20398;-80
2023/06/23 00:02:35;;;;;;;18.00;13.77;;;;;;;13.95;100.00;101794.22;5058506;28;20100;-80
2023/06/23 00:05:01;;;;;;;19.52;13.77;;;;;;;14.22;100.00;101846.22;5056366;28;20447;-80
2023/06/23 00:07:26;;;;;;;20.27;13.57;;;;;;;14.06;100.00;101817.78;5055259;28;20096;-80
2023/06/23 00:09:51;;;;;;;19.20;14.38;;;;;;;14.07;100.00;101831.59;5055761;28;20033;-88
2023/06/23 00:15:21;;;;;;;21.17;14.68;;;;;;;14.12;100.00;101858.09;5417690;22;20057;-84
2023/06/23 00:17:50;;;;;;;23.38;16.45;;;;;;;13.53;100.00;101765.69;5023461;28;20104;-78
2023/06/23 00:20:16;;;;;;;22.55;16.17;;;;;;;13.85;100.00;101813.88;5014759;28;20095;-77
2023/06/23 00:22:44;;;;;;;26.30;17.02;;;;;;;14.11;100.00;101866.84;5036176;28;20021;-78
2023/06/23 00:25:11;;;;;;;27.23;18.27;;;;;;;13.98;100.00;101843.38;5036934;28;20021;-78
2023/06/23 00:27:38;;;;;;;23.00;18.23;;;;;;;14.04;100.00;101861.16;5042062;28;20048;-92
2023/06/23 00:30:04;;;;;;;24.85;17.38;;;;;;;13.90;100.00;101845.59;5051970;28;20044;-93
2023/06/23 00:32:30;;;;;;;26.30;18.33;;;;;;;14.05;100.00;101880.19;5045492;28;20021;-89
2023/06/23 00:34:55;;;;;;;29.42;19.40;;;;;;;14.04;100.00;101879.34;5041916;28;20037;-86
2023/06/23 00:37:20;;;;;;;34.25;21.70;;;;;;;13.68;100.00;101814.09;5053871;28;20009;-79
2023/06/23 00:39:45;;;;;;;32.13;20.38;;;;;;;14.00;100.00;101877.88;5049464;28;20033;-80
2023/06/23 00:42:11;;;;;;;32.50;21.35;;;;;;;13.63;100.00;101816.13;5037007;28;20382;-84
2023/06/23 00:44:37;;;;;;;31.45;21.80;;;;;;;14.00;100.00;101879.66;5037139;28;20031;-80
2023/06/23 00:47:04;;;;;;;31.13;22.63;;;;;;;14.05;100.00;101887.97;5036366;28;20033;-80
2023/06/23 00:49:30;;;;;;;36.10;22.92;;;;;;;14.05;100.00;101885.38;5018401;28;20048;-80
2023/06/23 00:51:57;;;;;;;36.20;25.70;;;;;;;13.75;100.00;101847.34;5036377;28;20033;-80
2023/06/23 00:54:23;;;;;;;36.30;25.10;;;;;;;13.78;100.00;101856.75;5036178;28;20111;-80
2023/06/23 00:56:49;;;;;;;38.22;25.00;;;;;;;14.04;100.00;101905.31;5036024;28;20025;-80
2023/06/23 00:59:15;;;;;;;36.42;25.20;;;;;;;14.01;100.00;101913.31;5036500;28;20033;-80
2023/06/23 01:01:40;;;;;;;40.42;25.90;;;;;;;13.76;100.00;101868.94;5036452;28;20018;-80
2023/06/23 01:04:08;;;;;;;37.25;26.15;;;;;;;13.73;100.00;101879.53;5018495;28;20029;-80
2023/06/23 01:06:58;;;;;;;38.40;25.85;;;;;;;13.95;100.00;101921.47;5036247;28;20029;-80
2023/06/23 01:09:42;;;;;;;37.00;25.83;;;;;;;13.55;100.00;101859.84;5017895;28;20124;-80
2023/06/23 01:12:25;;;;;;;41.03;28.73;;;;;;;13.98;100.00;101938.63;5035992;28;20017;-80
2023/06/23 01:15:14;;;;;;;44.80;28.98;;;;;;;13.83;100.00;101913.56;5035342;28;20041;-81
2023/06/23 01:17:45;;;;;;;39.72;27.95;;;;;;;14.00;100.00;101935.00;5035086;28;20033;-80
2023/06/23 01:23:01;;;;;;;44.40;29.92;;;;;;;14.00;100.00;101931.59;5035868;28;20121;-79
2023/06/23 01:25:27;;;;;;;44.40;30.42;;;;;;;14.00;100.00;101929.81;5039663;28;20479;-80
2023/06/23 01:28:07;;;;;;;49.42;32.10;;;;;;;13.99;100.00;101935.94;5039458;28;20044;-80
2023/06/23 01:30:35;;;;;;;48.13;32.08;;;;;;;13.76;100.00;101907.91;5018926;28;20040;-81
2023/06/23 01:33:13;;;;;;;46.40;32.63;;;;;;;13.97;100.00;101952.56;5035785;28;20048;-86
2023/06/23 01:35:43;;;;;;;47.53;32.78;;;;;;;13.89;100.00;101936.59;5018050;28;20502;-85
2023/06/23 01:38:18;;;;;;;46.42;32.35;;;;;;;13.96;100.00;101950.84;5038413;28;20108;-81
2023/06/23 01:40:49;;;;;;;46.65;33.72;;;;;;;13.80;100.00;101929.34;5040679;28;20039;-79
2023/06/23 01:43:16;;;;;;;44.00;32.20;;;;;;;13.87;100.00;101943.63;5038920;28;20029;-84
2023/06/23 01:45:43;;;;;;;44.28;32.05;;;;;;;13.48;100.00;101883.59;5035352;28;20100;-80
2023/06/23 01:48:11;;;;;;;50.15;33.88;;;;;;;13.76;100.00;101919.13;5034679;28;20109;-82
2023/06/23 01:50:40;;;;;;;44.63;33.25;;;;;;;13.77;100.00;101941.56;5035296;28;20079;-80
2023/06/23 01:53:07;;;;;;;42.60;32.20;;;;;;;13.86;100.00;101955.75;5034933;28;20028;-80
2023/06/23 01:55:34;;;;;;;45.15;32.40;;;;;;;13.82;100.00;101959.47;5035330;28;20532;-85
2023/06/23 01:58:01;;;;;;;43.70;33.53;;;;;;;13.84;100.00;101970.59;5034786;28;20033;-81
2023/06/23 02:00:28;;;;;;;42.53;31.90;;;;;;;13.53;100.00;101922.22;5034705;28;20036;-81
2023/06/23 02:02:55;;;;;;;44.00;32.88;;;;;;;13.82;100.00;101971.63;5034434;28;20049;-80
2023/06/23 02:05:24;;;;;;;43.38;32.97;;;;;;;13.78;100.00;101964.00;5034561;28;20041;-82
2023/06/23 02:07:51;;;;;;;43.00;32.72;;;;;;;13.74;100.00;101965.09;5034804;28;20033;-81
2023/06/23 02:10:19;;;;;;;44.28;32.80;;;;;;;13.60;100.00;101953.84;5034857;28;20033;-80
2023/06/23 02:12:45;;;;;;;44.22;31.50;;;;;;;13.48;100.00;101940.66;5034540;28;20021;-80
2023/06/23 02:15:13;;;;;;;43.70;32.47;;;;;;;13.51;100.00;101952.63;5034677;28;20521;-82
2023/06/23 02:17:40;;;;;;;39.17;30.58;;;;;;;13.48;100.00;101965.78;5034129;28;20047;-80
2023/06/23 02:20:14;;;;;;;41.25;31.50;;;;;;;13.63;100.00;101993.44;5034289;28;20025;-80
2023/06/23 02:22:43;;;;;;;43.00;32.03;;;;;;;13.26;100.00;101929.81;5016318;28;20449;-81
2023/06/23 02:25:10;;;;;;;41.67;31.80;;;;;;;13.61;100.00;101984.06;5034041;28;20040;-80
2023/06/23 02:27:36;;;;;;;46.50;33.63;;;;;;;13.60;100.00;101998.81;5016052;28;20034;-80
2023/06/23 02:30:03;;;;;;;47.10;34.28;;;;;;;13.58;100.00;102005.84;5034106;28;20029;-81
2023/06/23 02:32:28;;;;;;;44.78;34.58;;;;;;;13.62;100.00;102014.28;5033840;28;20037;-83
2023/06/23 02:34:53;;;;;;;48.28;35.50;;;;;;;13.27;100.00;101964.38;5033918;28;20026;-80
2023/06/23 02:37:23;;;;;;;46.47;35.10;;;;;;;13.53;100.00;102022.59;5034009;28;20475;-82
2023/06/23 02:39:55;;;;;;;50.25;37.13;;;;;;;13.55;100.00;102026.78;5033725;28;20027;-80
2023/06/23 02:42:25;;;;;;;46.00;34.63;;;;;;;13.59;100.00;102033.47;5033780;28;20485;-85
2023/06/23 02:44:58;;;;;;;53.67;37.45;;;;;;;13.51;100.00;102025.28;5033224;28;20060;-83
2023/06/23 02:47:25;;;;;;;52.42;37.25;;;;;;;13.52;100.00;102024.38;5033614;28;20033;-79
2023/06/23 02:49:56;;;;;;;56.35;39.53;;;;;;;13.54;100.00;102030.28;5033592;28;20025;-80
2023/06/23 02:52:24;;;;;;;;;;;;;;;13.46;100.00;102041.09;5016184;28;20042;-79
2023/06/23 02:54:52;;;;;;;55.08;40.30;;;;;;;13.53;100.00;102046.78;5033861;28;19978;-80
2023/06/23 02:57:20;;;;;;;55.00;40.53;;;;;;;13.18;100.00;101997.69;5015464;28;20130;-81
2023/06/23 02:59:49;;;;;;;56.65;40.88;;;;;;;13.50;100.00;102052.16;5033527;28;20140;-82
2023/06/23 03:02:22;;;;;;;59.78;42.28;;;;;;;13.44;100.00;102045.53;5033568;28;20029;-84
2023/06/23 03:04:48;;;;;;;59.47;43.13;;;;;;;13.32;100.00;102027.22;5033548;28;20025;-80
2023/06/23 03:07:15;;;;;;;68.05;45.15;;;;;;;13.25;100.00;102012.91;5034211;28;20036;-80
2023/06/23 03:09:42;;;;;;;63.63;43.83;;;;;;;13.45;100.00;102056.75;5033829;28;20057;-81
2023/06/23 03:12:08;;;;;;;66.00;46.88;;;;;;;13.44;100.00;102055.91;5033836;28;20379;-80
2023/06/23 03:14:34;;;;;;;69.05;46.35;;;;;;;13.29;100.00;102035.19;5033685;28;20037;-84
2023/06/23 03:17:13;;;;;;;67.93;46.08;;;;;;;13.41;100.00;102056.09;5033328;28;20065;-82
2023/06/23 03:19:46;;;;;;;71.78;48.13;;;;;;;13.43;100.00;102054.25;5032617;28;20025;-86
2023/06/23 03:22:18;;;;;;;72.60;49.15;;;;;;;13.29;100.00;102040.38;5032881;28;20155;-81
2023/06/23 03:24:49;;;;;;;72.30;49.05;;;;;;;13.20;100.00;102036.53;5032776;28;20026;-82
2023/06/23 03:27:15;;;;;;;72.75;51.15;;;;;;;13.25;100.00;102039.69;5017970;28;20033;-80
2023/06/23 03:29:52;;;;;;;78.97;50.65;;;;;;;13.15;100.00;102035.91;4995712;28;20041;-84
2023/06/23 03:32:28;;;;;;;80.85;52.35;;;;;;;13.40;100.00;102082.97;5015708;28;20022;-83
2023/06/23 03:35:01;;;;;;;82.38;53.40;;;;;;;13.21;100.00;102035.59;5013294;28;20036;-81
2023/06/23 03:37:30;;;;;;;82.13;53.67;;;;;;;13.42;100.00;102075.94;5014600;28;20034;-92
2023/06/23 03:40:00;;;;;;;78.82;51.47;;;;;;;12.77;100.00;101962.78;5013731;28;20061;-88
2023/06/23 03:42:27;;;;;;;85.20;53.95;;;;;;;13.45;100.00;102080.94;5013711;28;20021;-83
2023/06/23 03:44:56;;;;;;;95.95;57.45;;;;;;;13.32;100.00;102050.59;5013769;28;20104;-90
2023/06/23 03:47:26;;;;;;;91.57;56.00;;;;;;;13.24;100.00;102047.56;5014334;28;20084;-84
2023/06/23 03:49:56;;;;;;;87.13;54.88;;;;;;;13.45;100.00;102055.00;5015593;28;20036;-79
2023/06/23 03:52:23;;;;;;;95.38;56.78;;;;;;;13.55;100.00;102063.09;5018317;28;20364;-79
2023/06/23 03:54:52;;;;;;;95.00;56.15;;;;;;;13.56;100.00;102062.19;5013185;28;20026;-81
2023/06/23 03:57:22;;;;;;;98.05;58.22;;;;;;;13.57;100.00;102071.66;5013347;28;20022;-82
2023/06/23 03:59:49;;;;;;;96.15;55.47;;;;;;;13.38;100.00;102034.69;5013625;28;20030;-93
2023/06/23 04:02:17;;;;;;;92.47;55.83;;;;;;;13.59;100.00;102077.59;5013773;28;20014;-94
2023/06/23 04:04:44;;;;;;;92.57;56.42;;;;;;;13.65;100.00;102094.56;5013406;28;20025;-93
2023/06/23 04:07:11;;;;;;;88.65;55.58;;;;;;;13.68;100.00;102103.06;4995612;28;20121;-92
2023/06/23 04:09:40;;;;;;;97.95;55.33;;;;;;;13.63;100.00;102086.88;5027675;28;20394;-88
2023/06/23 04:12:10;;;;;;;94.22;55.60;;;;;;;13.71;100.00;102100.28;5013357;28;20033;-91
2023/06/23 04:14:38;;;;;;;96.57;56.53;;;;;;;13.63;100.00;102075.66;5011265;28;20050;-92
2023/06/23 04:17:06;;;;;;;93.40;55.05;;;;;;;13.77;100.00;102088.72;5013613;28;20042;-82
2023/06/23 04:19:34;;;;;;;96.80;55.90;;;;;;;13.90;100.00;102110.47;4995614;28;20030;-87
2023/06/23 04:22:02;;;;;;;93.70;54.20;;;;;;;13.78;100.00;102080.84;5012776;28;20029;-93
2023/06/23 04:24:30;;;;;;;91.28;53.75;;;;;;;13.95;100.00;102100.66;5013177;28;20025;-92
2023/06/23 04:26:57;;;;;;;91.00;55.95;;;;;;;14.10;100.00;102105.91;5013117;28;20026;-91
2023/06/23 04:29:25;;;;;;;88.30;53.38;;;;;;;13.05;100.00;101931.84;5013731;28;20117;-82
2023/06/23 04:31:54;;;;;;;90.93;52.72;;;;;;;14.27;100.00;102111.81;5013026;28;20113;-90
2023/06/23 04:34:19;;;;;;;94.20;53.22;;;;;;;14.40;100.00;102116.28;5013250;28;20030;-91
2023/06/23 04:36:49;;;;;;;84.65;52.33;;;;;;;14.10;100.00;102059.97;5012981;28;20018;-88
2023/06/23 04:39:27;;;;;;;89.13;51.97;;;;;;;14.58;100.00;102118.66;5012952;28;20468;-87
2023/06/23 04:41:56;;;;;;;78.63;50.60;;;;;;;14.56;100.00;102117.94;5012773;28;20352;-80
2023/06/23 04:44:28;;;;;;;74.63;49.30;;;;;;;14.71;100.00;102121.38;5012822;28;20022;-84
2023/06/23 04:46:57;;;;;;;76.75;49.13;;;;;;;14.72;100.00;102115.25;5012413;28;20065;-82
2023/06/23 04:49:33;;;;;;;67.03;46.05;;;;;;;14.67;100.00;102106.06;5012529;28;20120;-82
2023/06/23 04:52:03;;;;;;;65.47;45.30;;;;;;;14.54;100.00;102078.16;5012062;28;20030;-85
2023/06/23 04:54:39;;;;;;;64.40;46.25;;;;;;;14.83;100.00;102118.03;5012221;28;20084;-82
2023/06/23 04:57:09;;;;;;;54.53;38.50;;;;;;;15.14;100.00;102123.97;4994884;28;20026;-83
2023/06/23 05:02:12;;;;;;;49.40;37.10;;;;;;;15.75;100.00;102136.63;1453244;26;20052;-83
2023/06/23 05:04:41;;;;;;;49.17;37.53;;;;;;;15.88;100.00;102109.78;5031766;28;20053;-86
2023/06/23 05:07:13;;;;;;;42.65;31.02;;;;;;;16.38;100.00;102144.72;5015250;28;20083;-86
2023/06/23 05:09:42;;;;;;;43.80;35.45;;;;;;;16.56;100.00;102144.31;5035938;28;20091;-86
2023/06/23 05:12:10;;;;;;;38.40;30.33;;;;;;;16.81;100.00;102142.66;5034451;28;20087;-84
2023/06/23 05:14:40;;;;;;;39.03;32.90;;;;;;;16.79;100.00;102113.25;5035693;28;20451;-86
2023/06/23 05:17:09;;;;;;;36.58;31.55;;;;;;;17.42;100.00;102156.72;5034364;28;20017;-84
2023/06/23 05:19:37;;;;;;;37.05;31.75;;;;;;;17.71;100.00;102149.44;5035565;28;20026;-85
2023/06/23 05:22:08;;;;;;;33.50;28.50;;;;;;;18.37;100.00;102155.88;5035410;28;20021;-84
2023/06/23 05:24:37;;;;;;;34.97;29.38;;;;;;;18.52;100.00;102107.63;5035419;28;20064;-84
2023/06/23 05:27:07;;;;;;;29.20;26.02;;;;;;;19.32;100.00;102127.66;5035390;28;20086;-84
2023/06/23 05:29:36;;;;;;;29.88;25.65;;;;;;;19.66;100.00;102112.69;5035325;28;20033;-84
2023/06/23 05:32:05;;;;;;;26.80;23.33;;;;;;;20.42;100.00;102158.84;5035093;28;20427;-83
2023/06/23 05:34:32;;;;;;;32.17;27.48;;;;;;;20.77;100.00;102155.06;5035315;28;20041;-82
2023/06/23 05:37:01;;;;;;;32.08;27.50;;;;;;;20.46;100.00;102101.72;5035062;28;20041;-87
2023/06/23 05:39:28;;;;;;;29.38;22.55;;;;;;;21.23;100.00;102167.69;5035072;28;20025;-83
2023/06/23 05:41:54;;;;;;;26.63;21.73;;;;;;;21.51;100.00;102170.56;5035030;28;20030;-83
2023/06/23 05:44:19;;;;;;;27.50;23.73;;;;;;;21.60;98.64;102159.25;5035146;28;20030;-84
2023/06/23 05:46:48;;;;;;;27.15;23.55;;;;;;;21.96;98.43;102176.16;5035044;28;20071;-86
2023/06/23 05:49:17;;;;;;;28.20;24.25;;;;;;;22.02;97.92;102183.47;5035113;28;20057;-82
2023/06/23 05:51:44;;;;;;;22.40;20.00;;;;;;;22.44;93.90;102177.97;5035813;28;20105;-85
2023/06/23 05:54:11;;;;;;;28.13;23.02;;;;;;;22.37;92.42;102188.22;5034804;28;20112;-83
2023/06/23 05:56:44;;;;;;;25.73;23.02;;;;;;;22.48;96.34;102180.16;5035519;28;20025;-82
2023/06/23 05:59:22;;;;;;;24.13;20.55;;;;;;;22.72;94.22;102179.72;5039550;28;20042;-82
2023/06/23 06:01:51;;;;;;;28.17;23.92;;;;;;;22.35;93.22;102153.31;5044445;28;20028;-84
2023/06/23 06:04:23;;;;;;;26.92;23.30;;;;;;;23.06;91.73;102187.91;5017050;28;20022;-83
2023/06/23 06:06:54;;;;;;;22.80;20.35;;;;;;;23.25;87.27;102165.09;5043075;28;20059;-82
2023/06/23 06:09:21;;;;;;;24.55;20.75;;;;;;;23.74;86.81;102188.41;5054564;28;20029;-81
2023/06/23 06:11:47;;;;;;;27.05;23.63;;;;;;;23.89;84.50;102193.16;5054483;28;20025;-83
2023/06/23 06:14:15;;;;;;;23.75;18.52;;;;;;;24.22;81.93;102186.38;5054507;28;20035;-80
2023/06/23 06:16:42;;;;;;;21.83;19.50;;;;;;;24.38;80.60;102175.09;5047960;28;20108;-82
2023/06/23 06:19:10;;;;;;;23.60;20.23;;;;;;;24.63;78.72;102203.34;5033950;28;20021;-79
2023/06/23 06:21:39;;;;;;;26.30;23.50;;;;;;;24.83;77.96;102207.44;5034171;28;20099;-83
2023/06/23 06:24:07;;;;;;;23.40;20.95;;;;;;;24.66;77.54;102204.84;5034036;28;20025;-81
2023/06/23 06:26:32;;;;;;;29.15;23.63;;;;;;;24.89;77.27;102203.34;5033801;28;20064;-81
2023/06/23 06:29:00;;;;;;;23.23;20.83;;;;;;;24.49;77.02;102190.72;5033569;28;20053;-82
2023/06/23 06:31:28;;;;;;;27.15;23.70;;;;;;;23.77;79.44;102200.47;5033986;28;20033;-84
2023/06/23 06:33:56;;;;;;;22.98;20.15;;;;;;;23.41;80.37;102174.03;5033959;28;20036;-81
2023/06/23 06:36:24;;;;;;;25.60;22.88;;;;;;;23.00;83.89;102206.09;5033945;28;20470;-84
2023/06/23 06:38:51;;;;;;;25.15;22.52;;;;;;;22.51;86.42;102195.66;5015856;28;20080;-78
2023/06/23 06:41:17;;;;;;;26.27;23.42;;;;;;;22.42;87.09;102219.38;5033608;28;20084;-82
2023/06/23 06:43:44;;;;;;;28.85;25.30;;;;;;;21.63;89.39;102180.84;5033646;28;20025;-81
2023/06/23 06:46:11;;;;;;;25.65;22.85;;;;;;;22.15;89.36;102191.97;5033377;28;20087;-80
2023/06/23 06:48:38;;;;;;;25.73;23.02;;;;;;;23.55;83.35;102228.06;5033686;28;20525;-85
2023/06/23 06:51:05;;;;;;;27.88;23.70;;;;;;;23.88;79.30;102231.91;5015539;28;20048;-87
2023/06/23 06:53:31;;;;;;;27.38;24.27;;;;;;;24.39;78.30;102238.34;5015218;28;20038;-86
2023/06/23 06:55:58;;;;;;;24.20;21.65;;;;;;;25.45;72.20;102223.94;5033208;28;20030;-80
2023/06/23 06:58:23;;;;;;;22.58;20.15;;;;;;;26.48;68.49;102244.81;5015297;28;20395;-86
2023/06/23 07:00:49;;;;;;;22.17;19.70;;;;;;;27.25;63.41;102224.78;5015317;28;20029;-86
2023/06/23 07:03:16;;;;;;;19.88;17.70;;;;;;;27.90;62.17;102240.34;5033126;28;20045;-85
2023/06/23 07:05:41;;;;;;;22.33;19.95;;;;;;;28.39;56.90;102241.84;5033445;28;20087;-83
2023/06/23 07:08:07;;;;;;;20.50;18.30;;;;;;;28.32;58.42;102225.81;5033177;28;20033;-88
2023/06/23 07:10:34;;;;;;;22.83;20.20;;;;;;;29.00;58.91;102251.38;5033168;28;20029;-85
2023/06/23 07:13:00;;;;;;;22.98;20.55;;;;;;;29.28;54.84;102214.28;5033169;28;20022;-85
2023/06/23 07:15:25;;;;;;;21.80;18.92;;;;;;;29.81;53.25;102248.72;5033468;28;20075;-88
2023/06/23 07:17:51;;;;;;;20.92;17.92;;;;;;;29.91;52.09;102254.53;5033184;28;20033;-83
2023/06/23 07:20:16;;;;;;;22.40;19.98;;;;;;;29.83;50.23;102239.50;5033268;28;20033;-84
2023/06/23 07:22:41;;;;;;;21.70;17.48;;;;;;;29.11;53.22;102248.28;5032878;28;20029;-88
2023/06/23 07:25:07;;;;;;;21.00;18.77;;;;;;;29.30;53.28;102252.19;5033122;28;20029;-82
2023/06/23 07:27:33;;;;;;;21.88;19.58;;;;;;;29.42;51.28;102215.28;5032925;28;20021;-87
2023/06/23 07:30:01;;;;;;;18.20;16.30;;;;;;;30.08;50.82;102263.94;5032747;28;20574;-87
2023/06/23 07:32:26;;;;;;;23.35;19.40;;;;;;;30.17;49.36;102259.31;5033012;28;20018;-85
2023/06/23 07:34:55;;;;;;;21.88;19.55;;;;;;;30.33;49.79;102272.38;5032882;28;20047;-86
2023/06/23 07:37:20;;;;;;;22.33;19.80;;;;;;;30.19;49.47;102222.66;5033104;28;20029;-87
2023/06/23 07:39:46;;;;;;;19.77;16.77;;;;;;;30.36;48.99;102261.31;5032972;28;20055;-85
2023/06/23 07:42:12;;;;;;;23.52;20.25;;;;;;;29.66;50.00;102260.22;5032880;28;20057;-86
2023/06/23 07:44:37;;;;;;;22.33;19.20;;;;;;;28.56;53.87;102265.44;5015108;28;20088;-87
2023/06/23 07:47:03;;;;;;;21.80;19.60;;;;;;;27.03;56.95;102274.06;5033011;28;20087;-85
2023/06/23 07:49:29;;;;;;;23.40;20.77;;;;;;;25.79;62.53;102275.19;5032755;28;20116;-85
2023/06/23 07:51:59;;;;;;;22.67;20.27;;;;;;;24.98;65.49;102272.94;5032576;28;20100;-84
2023/06/23 07:54:25;;;;;;;23.65;21.25;;;;;;;24.29;68.46;102262.16;5032428;28;20080;-86
2023/06/23 07:56:50;;;;;;;18.90;16.90;;;;;;;23.77;71.79;102250.56;5032509;28;20029;-85
2023/06/23 07:59:16;;;;;;;19.85;17.77;;;;;;;23.45;72.81;102251.00;5032493;28;20132;-84
2023/06/23 08:01:41;;;;;;;21.30;19.02;;;;;;;23.13;74.57;102228.53;5032075;28;20068;-86
2023/06/23 08:04:07;;;;;;;25.00;22.38;;;;;;;23.19;75.27;102275.38;5032722;28;20025;-81
2023/06/23 08:06:35;;;;;;;23.85;21.35;;;;;;;22.82;79.28;102232.34;5014849;28;20053;-84
2023/06/23 08:09:01;;;;;;;23.25;20.75;;;;;;;22.59;77.85;102235.28;5014346;28;20091;-84
2023/06/23 08:11:26;;;;;;;22.58;19.23;;;;;;;22.92;80.72;102271.88;5031330;28;20470;-82
2023/06/23 08:13:51;;;;;;;24.65;22.15;;;;;;;22.81;79.35;102267.53;5032876;28;20021;-81
2023/06/23 08:16:17;;;;;;;24.10;21.48;;;;;;;22.71;82.66;102282.53;5032757;28;20026;-84
2023/06/23 08:18:42;;;;;;;24.80;22.08;;;;;;;22.46;78.61;102281.31;5032661;28;20033;-82
2023/06/23 08:21:09;;;;;;;21.23;18.85;;;;;;;22.53;83.65;102280.63;5032300;28;20029;-79
2023/06/23 08:23:34;;;;;;;21.63;19.35;;;;;;;22.40;83.75;102279.22;5031976;28;20467;-79
2023/06/23 08:26:00;;;;;;;21.77;19.45;;;;;;;22.27;81.50;102276.88;5032432;28;20037;-79
2023/06/23 08:28:25;;;;;;;20.10;17.35;;;;;;;22.23;82.06;102267.59;5032096;28;20035;-79
2023/06/23 08:30:50;;;;;;;23.45;20.95;;;;;;;22.25;79.52;102278.81;5032328;28;20037;-82
2023/06/23 08:33:16;;;;;;;21.60;19.50;;;;;;;22.25;85.20;102287.53;5032252;28;20776;-80
2023/06/23 08:35:41;;;;;;;19.67;16.55;;;;;;;22.13;86.67;102261.50;5032208;28;20101;-81
2023/06/23 08:38:06;;;;;;;20.05;17.17;;;;;;;21.94;85.35;102225.44;5032167;28;20534;-81
2023/06/23 08:40:32;;;;;;;22.02;18.55;;;;;;;21.98;79.74;102243.44;5014283;28;20044;-82
2023/06/23 08:42:58;;;;;;;18.63;16.73;;;;;;;21.94;79.85;102254.38;5034194;28;20034;-81
2023/06/23 08:45:24;;;;;;;19.83;17.63;;;;;;;22.38;78.59;102302.22;5039716;28;20474;-78
2023/06/23 08:47:54;;;;;;;19.48;17.27;;;;;;;22.38;81.55;102291.69;5055392;28;20463;-79
2023/06/23 08:50:20;;;;;;;21.35;18.70;;;;;;;22.52;82.41;102302.66;5055583;28;20033;-81
2023/06/23 08:52:46;;;;;;;17.60;15.73;;;;;;;22.23;82.98;102273.69;5021451;28;20132;-77
2023/06/23 08:55:12;;;;;;;16.27;14.05;;;;;;;22.51;82.87;102315.94;5055552;28;20027;-80
2023/06/23 08:57:38;;;;;;;16.58;14.40;;;;;;;22.33;78.38;102314.00;5055745;28;20025;-78
2023/06/23 09:00:06;;;;;;;20.38;16.52;;;;;;;22.26;79.16;102318.16;5055259;28;20075;-78
2023/06/23 09:02:31;;;;;;;17.80;15.93;;;;;;;22.29;81.17;102309.16;5055325;28;20475;-80
2023/06/23 09:04:57;;;;;;;14.63;13.13;;;;;;;22.40;80.08;102319.53;5055346;28;20159;-77
2023/06/23 09:07:24;;;;;;;15.93;12.70;;;;;;;22.42;82.50;102301.81;5055476;28;20078;-78
2023/06/23 09:09:50;;;;;;;15.73;13.98;;;;;;;22.57;84.77;102321.50;5036634;28;20048;-77
2023/06/23 09:12:20;;;;;;;14.65;12.75;;;;;;;22.56;77.48;102329.53;5055349;28;20031;-78
2023/06/23 09:14:46;;;;;;;14.70;11.30;;;;;;;22.50;75.21;102324.81;5055367;28;20077;-78
2023/06/23 09:17:12;;;;;;;14.15;12.60;;;;;;;22.39;71.97;102327.56;5054840;28;20033;-79
2023/06/23 09:19:39;;;;;;;12.52;10.52;;;;;;;22.57;79.11;102333.81;5055357;28;20065;-79
2023/06/23 09:22:06;;;;;;;15.00;12.68;;;;;;;22.50;77.19;102311.66;5055358;28;20028;-78
2023/06/23 09:24:43;;;;;;;11.77;10.05;;;;;;;22.61;78.53;102328.16;5054936;28;20040;-79
2023/06/23 09:27:09;;;;;;;13.93;12.25;;;;;;;22.63;72.60;102325.38;5055108;28;20031;-78
2023/06/23 09:29:37;;;;;;;12.57;10.32;;;;;;;22.97;76.16;102336.31;5036523;28;20041;-80
2023/06/23 09:32:03;;;;;;;13.68;10.57;;;;;;;23.18;78.23;102323.78;5055136;28;20113;-80
2023/06/23 09:34:31;;;;;;;12.30;9.60;;;;;;;23.41;76.14;102352.47;5036945;28;20486;-79
2023/06/23 09:37:13;;;;;;;14.93;11.82;;;;;;;23.06;74.56;102350.47;5054812;28;20488;-79
2023/06/23 09:39:41;;;;;;;13.98;11.73;;;;;;;22.86;75.74;102339.13;5054777;28;20095;-79
2023/06/23 09:42:12;;;;;;;11.68;9.48;;;;;;;23.03;76.71;102356.03;5054835;28;20028;-80
2023/06/23 09:44:45;;;;;;;13.00;10.57;;;;;;;23.05;70.90;102357.53;5054485;28;20039;-79
2023/06/23 09:47:14;;;;;;;12.75;9.95;;;;;;;22.77;72.31;102351.28;5054762;28;20163;-81
2023/06/23 09:49:42;;;;;;;9.27;7.25;;;;;;;22.78;75.46;102357.38;5054702;28;20057;-81
2023/06/23 09:52:09;;;;;;;13.40;10.30;;;;;;;22.71;76.56;102357.09;5036523;28;20064;-80
2023/06/23 09:54:39;;;;;;;12.90;10.20;;;;;;;22.75;73.85;102337.44;5034298;28;20021;-85
2023/06/23 09:57:08;;;;;;;11.25;8.85;;;;;;;22.89;75.96;102339.66;5035357;28;20021;-80
2023/06/23 09:59:37;;;;;;;11.45;8.70;;;;;;;23.29;74.48;102364.13;5034515;28;20030;-83
2023/06/23 10:02:03;;;;;;;11.52;8.65;;;;;;;23.11;72.12;102333.25;5016563;28;20045;-83
2023/06/23 10:04:31;;;;;;;14.35;10.68;;;;;;;23.39;71.30;102359.66;5034443;28;20028;-79
2023/06/23 10:06:57;;;;;;;12.07;8.70;;;;;;;23.40;65.64;102354.28;5034412;28;20107;-80
2023/06/23 10:09:24;;;;;;;8.90;7.03;;;;;;;23.29;67.56;102354.41;5033980;28;20035;-82
2023/06/23 10:11:50;;;;;;;11.43;8.40;;;;;;;23.28;67.51;102341.38;5033603;28;20078;-79
2023/06/23 10:14:16;;;;;;;10.95;7.63;;;;;;;23.59;68.96;102348.13;5033917;28;20418;-78
2023/06/23 10:16:45;;;;;;;10.25;7.70;;;;;;;23.77;65.95;102355.25;5033973;28;20083;-78
2023/06/23 10:19:11;;;;;;;12.75;7.80;;;;;;;24.02;69.18;102336.13;5034228;28;20033;-80
2023/06/23 10:21:37;;;;;;;9.38;7.25;;;;;;;24.25;67.19;102350.53;5034175;28;20071;-79
2023/06/23 10:24:10;;;;;;;8.95;7.05;;;;;;;24.19;64.34;102345.88;5033982;28;20029;-80
2023/06/23 10:26:37;;;;;;;9.43;7.22;;;;;;;24.24;64.99;102340.13;5024544;23;20054;-82
2023/06/23 10:29:19;;;;;;;9.52;7.10;;;;;;;24.24;67.99;102321.66;5013887;28;20041;-79
2023/06/23 10:31:45;;;;;;;9.75;7.28;;;;;;;24.30;66.51;102308.69;5013998;28;20477;-78
2023/06/23 10:34:12;;;;;;;9.52;6.88;;;;;;;24.50;65.68;102335.00;5014080;28;20030;-80
2023/06/23 10:36:43;;;;;;;9.32;6.82;;;;;;;24.37;66.42;102353.00;5013819;28;20245;-80
2023/06/23 10:39:13;;;;;;;8.80;6.87;;;;;;;24.02;65.32;102312.38;5013923;28;20100;-78
2023/06/23 10:41:41;;;;;;;11.53;7.47;;;;;;;24.35;66.30;102349.69;5013571;28;20034;-79
2023/06/23 10:44:08;;;;;;;10.93;7.70;;;;;;;24.35;64.27;102339.13;5013888;28;20459;-80
2023/06/23 10:46:35;;;;;;;11.98;9.07;;;;;;;24.53;60.49;102361.91;5013617;28;20026;-80
2023/06/23 10:49:04;;;;;;;9.23;6.43;;;;;;;24.63;62.71;102359.19;5013883;28;20037;-80
2023/06/23 10:51:30;;;;;;;9.25;7.00;;;;;;;24.62;61.82;102362.81;5013674;28;20045;-80
2023/06/23 10:53:58;;;;;;;9.65;6.63;;;;;;;24.49;65.51;102365.84;5013942;28;20096;-83
2023/06/23 10:56:31;;;;;;;10.00;7.00;;;;;;;24.22;65.93;102319.19;5013811;28;20032;-79
2023/06/23 10:58:56;;;;;;;10.30;7.07;;;;;;;24.36;64.76;102362.72;5013623;28;20045;-78
2023/06/23 11:01:21;;;;;;;9.95;6.57;;;;;;;24.03;62.72;102335.97;5013631;28;20395;-79
2023/06/23 11:03:52;;;;;;;10.77;6.22;;;;;;;24.24;63.74;102362.09;5013208;28;20030;-80
2023/06/23 11:06:26;;;;;;;9.57;6.38;;;;;;;24.30;64.81;102356.22;5013233;28;20351;-79
2023/06/23 11:08:52;;;;;;;11.38;6.00;;;;;;;24.47;64.66;102365.16;5013485;28;20032;-79
2023/06/23 11:11:30;;;;;;;9.43;7.13;;;;;;;24.39;64.01;102367.75;5013182;28;20042;-80
2023/06/23 11:13:56;;;;;;;8.38;6.30;;;;;;;24.38;58.36;102371.31;5013365;28;20026;-79
2023/06/23 11:16:34;;;;;;;8.73;6.35;;;;;;;24.55;65.59;102367.03;5013343;28;20373;-79
2023/06/23 11:19:02;;;;;;;8.48;6.07;;;;;;;24.43;63.19;102352.41;5013372;28;20388;-79